x

8454049 - Quonset Point, Ri (qptr1) Weather Station

8:30 - Sun 4th Dec 2016 All times are EST. -5 hours from GMT.

  • Wind
    8mph, 11mph gusts
  • Sea Temp 47°f
  • Ar Temp 34°f
  • Sea Pressure 1022.1mb
  • 8454049 - Quonset Point, Ri
  • 8454049 - Quonset Point, Ri

More Historic Weather Station data

Upgrade to MSW Pro to gain access to the past 30 days of data for over 8000 Wavebouys and Weather Stations around the globe.

Join Pro

Comparision Forecast

View Surf forecast
   
Dom 12/04 8:30 8 11 mph 1022.1mb 47f 34f
8:24 8 9 mph 1022.2mb 47f 34f
8:18 8 10 mph 1022.3mb 47f 34f
8:12 8 11 mph 1022.1mb 47f 34f
8:06 7 11 mph 1022.2mb 47f 34f
8:00 6 10 mph 1022.1mb 47f 34f
7:54 7 10 mph 1022mb 47f 34f
7:48 7 8 mph 1022mb 47f 35f
7:42 6 8 mph 1022mb 47f 35f
7:36 6 8 mph 1022.1mb 47f 34f
7:30 6 7 mph 1021.9mb - -
7:24 6 8 mph 1021.6mb 47f 34f
7:18 6 8 mph 1021.6mb 47f 34f
7:12 7 9 mph 1021.6mb 47f 34f
7:06 6 8 mph 1021.5mb 47f 34f
7:00 6 8 mph 1021.5mb 47f 34f
6:54 6 7 mph 1021.6mb 47f 34f
6:48 5 8 mph 1021.5mb 47f 34f
6:42 5 7 mph 1021.5mb 47f 34f
6:36 5 7 mph 1021.4mb 47f 34f
6:30 5 7 mph 1021.4mb 47f 34f
6:24 3 5 mph 1021.5mb 47f 34f
6:18 3 6 mph 1021.4mb 47f 34f
6:12 5 6 mph 1021.3mb 47f 34f
6:06 5 6 mph 1021.1mb 47f 33f
6:00 5 6 mph 1021.2mb 47f 34f
5:54 3 6 mph 1021.3mb 47f 34f
5:48 5 6 mph 1021.3mb 47f 34f
5:42 3 5 mph 1021.2mb 47f 34f
5:36 5 6 mph 1021.2mb 47f 34f
5:30 6 7 mph 1021.2mb 47f 34f
5:24 5 6 mph 1021.1mb 47f 34f
5:18 6 8 mph 1020.9mb 47f 34f
5:12 6 8 mph 1020.8mb 47f 34f
5:06 5 7 mph 1020.9mb 47f 34f
5:00 6 8 mph 1020.9mb 47f 34f
4:54 5 9 mph 1020.9mb 47f 34f
4:48 5 8 mph 1020.9mb 47f 34f
4:42 6 10 mph 1020.9mb 47f 34f
4:36 8 10 mph 1020.9mb 47f 34f
4:30 7 9 mph 1020.9mb 47f 34f
4:24 6 7 mph 1021mb 47f 34f
4:18 6 9 mph 1021mb 47f 34f
4:12 8 11 mph 1020.9mb 47f 34f
4:06 9 13 mph 1020.9mb 47f 34f
4:00 8 11 mph 1021mb 47f 34f
3:54 9 13 mph 1021mb 48f 34f
3:48 8 11 mph 1021.1mb 48f 34f
3:42 8 11 mph 1021.1mb 48f 34f
3:36 8 10 mph 1021.1mb 48f 33f
3:30 8 10 mph 1021.1mb 48f 33f
3:24 8 10 mph 1021.1mb 48f 34f
3:18 7 10 mph 1021.1mb 48f 34f
3:12 6 7 mph 1021.1mb 48f 34f
3:06 6 9 mph 1021.1mb 48f 34f
3:00 8 11 mph 1021mb 48f 34f
2:54 7 10 mph 1020.9mb 48f 34f
2:48 7 9 mph 1020.8mb 48f 34f
2:42 8 10 mph 1020.8mb 48f 34f
2:36 7 9 mph 1020.8mb 48f 34f
2:30 6 10 mph 1020.8mb 48f 34f
2:18 7 10 mph 1020.9mb 48f 35f
2:12 8 13 mph 1020.8mb 48f 35f
2:06 9 15 mph 1020.7mb 48f 35f
2:00 9 14 mph 1020.6mb 48f 35f
1:54 10 14 mph 1020.4mb 48f 35f
1:48 10 13 mph 1020.4mb 48f 35f
1:42 9 15 mph 1020.3mb 48f 35f
1:36 8 10 mph 1020.3mb 48f 35f
1:30 9 11 mph 1020.3mb 48f 35f
1:24 8 13 mph 1020.3mb 48f 36f
1:18 6 11 mph 1020.2mb 48f 36f
1:12 9 14 mph 1019.9mb 48f 36f
1:06 10 14 mph 1019.7mb 48f 35f
1:00 9 14 mph 1019.6mb 48f -
12:54 9 14 mph 1019.6mb 48f 35f
12:48 8 11 mph 1019.6mb 48f 35f
12:42 7 9 mph 1019.5mb 48f 35f
12:36 8 9 mph 1019.5mb 48f 35f
12:30 6 9 mph 1019.5mb 48f 35f
12:24 7 10 mph 1019.3mb 47f 35f
12:18 7 10 mph 1019.3mb 47f 35f
12:12 6 9 mph 1019.2mb 47f 36f
12:06 7 9 mph 1019.2mb 47f 36f
12:00 7 10 mph 1019.2mb 47f 36f
Sáb 12/03 11:54 8 13 mph 1019.1mb 47f 36f
11:48 7 9 mph 1019.1mb 47f 36f
11:42 6 9 mph 1019mb 47f 36f
11:36 8 10 mph 1018.8mb 47f 36f
11:30 5 6 mph 1018.9mb 47f 36f
11:24 5 8 mph 1018.8mb 47f 36f
11:18 6 8 mph 1018.6mb 47f 36f
11:12 6 8 mph 1018.5mb 47f 37f
11:06 5 9 mph 1018.6mb 47f 37f
11:00 8 13 mph 1018.4mb 47f 37f
10:54 9 13 mph 1018.1mb 47f 37f
10:48 7 8 mph - - -
10:42 6 9 mph 1018mb 47f 37f
10:36 7 9 mph 1018mb 47f 37f
10:30 6 10 mph 1017.9mb - -
10:24 7 14 mph 1017.7mb 47f 38f
10:18 10 14 mph 1017.5mb 47f 38f
10:12 10 14 mph 1017.5mb 47f 38f
10:06 9 14 mph 1017.5mb 47f 38f
10:00 9 13 mph 1017.5mb 47f 38f
9:54 6 10 mph 1017.5mb 47f 38f
9:48 8 13 mph 1017.5mb 47f 38f
9:42 8 14 mph 1017.5mb 47f 38f
9:36 9 13 mph 1017.5mb 47f 38f
9:30 8 10 mph 1017.6mb - -
9:24 7 11 mph 1017.7mb 47f 39f
9:18 8 13 mph 1017.8mb 47f 39f
9:12 8 11 mph 1017.7mb 47f 39f
9:06 8 11 mph 1017.7mb 47f 39f
9:00 10 14 mph 1017.7mb 47f 39f
8:54 11 17 mph 1017.7mb 47f 39f
8:48 10 16 mph - - -
8:42 9 14 mph 1017.8mb 47f 40f
8:36 10 13 mph 1017.7mb 47f 40f
8:30 8 15 mph 1017.7mb 47f 40f
8:24 9 15 mph 1017.6mb 47f 40f
8:18 10 16 mph - - -
8:12 10 16 mph 1017.5mb 48f 40f
8:06 15 18 mph 1017.4mb 48f 40f
8:00 11 18 mph 1017.4mb 48f 41f
7:54 11 16 mph 1017.5mb 48f 41f
7:48 11 16 mph - - -
7:42 13 16 mph 1017.4mb 48f 41f
7:36 13 20 mph 1017.4mb 48f 41f
7:30 13 21 mph 1017.2mb 48f 41f
7:24 13 22 mph 1017.1mb 48f 41f
7:18 13 17 mph 1017.1mb 48f 41f
7:12 13 20 mph 1017mb 48f 42f
7:06 9 14 mph 1017mb 48f 42f
7:00 9 15 mph 1016.9mb 48f 42f
6:54 11 17 mph 1016.8mb 48f 42f
6:48 14 18 mph 1016.7mb - -
6:42 9 15 mph 1016.7mb 48f 42f
6:36 10 18 mph 1016.7mb 48f 42f
6:30 9 14 mph 1016.7mb 48f 42f
6:24 11 15 mph 1016.8mb 48f 42f
6:18 8 13 mph 1016.9mb 48f 42f
6:12 7 10 mph 1016.8mb 48f 42f
6:06 9 13 mph 1016.7mb 48f 42f
6:00 9 14 mph 1016.5mb 48f 42f
5:54 9 14 mph 1016.4mb 48f 42f
5:48 9 16 mph 1016.3mb - -
5:42 10 15 mph 1016.1mb 48f 42f
5:36 8 15 mph 1016mb 48f 42f
5:30 9 14 mph 1015.9mb 48f 42f
5:24 10 15 mph 1015.7mb 48f 42f
5:18 8 15 mph - - -
5:12 10 18 mph 1015.5mb 48f 42f
5:06 10 18 mph 1015.3mb 48f 42f
5:00 9 15 mph 1015.2mb 48f 42f
4:54 9 15 mph 1015.2mb 48f 42f
4:48 11 16 mph - - -
4:42 13 18 mph 1014.9mb 48f 42f
4:36 13 17 mph 1014.8mb 48f 43f
4:30 11 15 mph 1014.6mb 48f 42f
4:24 11 18 mph 1014.5mb 48f 43f
4:18 13 20 mph 1014.5mb 48f 43f
4:12 9 16 mph 1014.4mb 48f 43f
4:06 10 18 mph 1014.1mb 48f 43f
4:00 11 18 mph 1014mb 48f 43f
3:54 13 16 mph 1014.1mb 48f 43f
3:48 10 22 mph 1013.9mb 48f 43f
3:42 15 20 mph 1013.8mb 48f 43f
3:36 13 17 mph 1013.7mb 48f 44f
3:30 14 24 mph 1013.7mb 48f 44f
3:24 15 22 mph 1013.6mb 48f 44f
3:18 11 18 mph 1013.6mb 48f 44f
3:12 15 20 mph 1013.5mb 48f 43f
3:06 13 21 mph 1013.5mb 48f 43f
3:00 20 25 mph 1013.4mb 48f 44f
2:54 17 26 mph 1013.2mb 48f 44f
2:48 14 22 mph 1013.3mb 48f 44f
2:42 16 24 mph 1013.1mb 48f 44f
2:36 18 24 mph 1012.9mb 48f 44f
2:30 17 24 mph 1012.9mb 48f 44f
2:24 20 30 mph 1012.8mb 48f 44f
2:18 15 22 mph 1012.8mb 48f 44f
2:12 13 21 mph 1012.7mb 48f 45f
2:06 20 26 mph 1012.6mb 48f 45f
2:00 20 26 mph 1012.5mb 48f 45f
1:54 20 29 mph 1012.5mb 48f 45f
1:48 22 28 mph 1012.5mb 48f 45f
1:42 21 25 mph 1012.4mb 48f 45f
1:36 18 26 mph 1012.4mb 48f 45f
1:30 16 23 mph 1012.3mb 48f 46f
1:24 20 28 mph 1012.3mb 48f 46f
1:18 15 22 mph 1012.3mb 48f 46f
1:12 18 24 mph 1012.2mb 48f 46f
1:06 17 24 mph 1012.2mb 48f 46f
1:00 15 21 mph 1012.1mb 48f 46f
12:54 16 22 mph 1012mb 48f 46f
12:48 17 25 mph 1012mb 48f 46f
12:42 15 23 mph 1011.9mb 48f 46f
12:36 14 20 mph 1012mb 48f 46f
12:30 11 20 mph 1012.1mb 48f 46f
12:24 13 21 mph 1012.1mb 48f 46f
12:18 14 20 mph 1012.1mb 48f 46f
12:12 15 22 mph 1012.1mb 48f 46f
12:06 15 23 mph 1012.2mb 48f 45f
12:00 16 21 mph 1012.2mb 48f -
11:54 16 24 mph 1012.2mb 47f 45f
11:48 18 23 mph 1012.1mb 47f 45f
11:42 17 26 mph 1012.4mb 47f 45f
11:36 20 25 mph 1012.3mb 47f 45f
11:30 14 25 mph 1012.3mb 47f 45f
11:24 17 26 mph 1012.3mb 47f 45f
11:18 16 29 mph 1012.1mb 47f 45f
11:12 15 24 mph 1012.2mb 47f 45f
11:06 14 21 mph 1012.1mb 47f 45f
11:00 18 25 mph 1012.1mb 47f 45f
10:54 15 24 mph 1012mb 47f 45f
10:48 18 28 mph 1012.1mb 47f 44f
10:42 20 29 mph 1012mb 47f 44f
10:36 20 29 mph 1012.1mb 47f 44f
10:30 20 24 mph 1012.1mb 47f 44f
10:24 14 25 mph 1012.2mb 47f 44f
10:18 18 26 mph 1012.2mb 47f 44f
10:12 17 25 mph 1012.1mb 47f 44f
10:06 15 25 mph 1012mb 47f 44f
10:00 13 25 mph 1012.1mb 47f 44f
9:54 14 29 mph 1012.2mb 47f 44f
9:48 16 24 mph 1012.1mb 47f 43f
9:42 18 26 mph 1012.1mb 48f 43f
9:36 15 23 mph 1012.1mb 48f 43f
9:30 20 28 mph 1012mb 48f 43f
9:24 15 22 mph 1011.9mb 48f 43f
9:18 18 24 mph 1011.8mb 48f 42f
9:12 18 25 mph 1011.8mb 48f 42f
9:06 18 23 mph 1011.7mb 48f 42f
9:00 15 22 mph 1011.8mb 48f 42f
8:54 16 22 mph 1011.7mb 48f 42f
8:48 15 22 mph 1011.6mb 48f 42f
8:42 17 22 mph 1011.6mb 48f 41f
8:36 14 22 mph 1011.5mb 48f 42f
8:30 14 23 mph 1011.5mb 48f 42f
8:24 16 23 mph 1011.4mb 48f 41f
8:18 16 23 mph 1011.4mb 48f 41f
8:12 17 24 mph 1011.3mb 48f 41f
8:06 16 22 mph 1011.3mb 48f 41f
8:00 14 22 mph 1011.3mb 48f 41f
7:54 13 20 mph 1011.2mb 48f 41f
7:48 14 22 mph 1011.1mb 48f 41f
7:42 14 23 mph 1011.1mb 48f 40f
7:36 16 23 mph 1010.9mb 48f 40f
7:30 13 21 mph 1010.9mb 48f 40f
7:24 14 21 mph 1010.8mb 48f 40f
7:18 14 21 mph 1010.8mb 48f 40f
7:12 11 17 mph 1010.7mb 48f 40f
7:06 11 15 mph 1010.7mb 48f 40f
7:00 14 17 mph 1010.7mb 48f 40f
6:54 10 20 mph 1010.7mb 48f 40f
6:48 13 17 mph 1010.7mb 48f 40f
6:42 14 21 mph 1010.6mb 48f 40f
6:36 10 18 mph 1010.6mb 48f 40f
6:30 13 21 mph 1010.4mb 48f 40f
6:24 16 21 mph 1010.4mb 48f 40f
6:18 15 21 mph 1010.2mb 48f 40f
6:12 11 22 mph 1010.2mb 48f 40f
6:06 13 20 mph 1010.1mb 48f 40f
6:00 14 22 mph 1010.1mb 48f 40f
5:54 11 18 mph 1010.1mb 48f 40f
5:48 13 20 mph 1010.1mb 48f 40f
5:42 13 17 mph 1010mb 48f 40f
5:36 13 16 mph 1010mb 48f 40f
5:30 9 13 mph 1010mb 48f 40f
5:24 9 16 mph 1010mb 48f 40f
5:18 8 16 mph 1010mb 48f 40f
5:12 13 20 mph 1009.8mb 48f 40f
5:06 9 16 mph 1009.9mb 48f 40f
5:00 11 16 mph 1009.8mb 48f 40f
4:54 9 15 mph 1009.7mb 48f 40f
4:48 10 16 mph 1009.6mb 48f 40f
4:42 14 21 mph 1009.6mb 48f 40f
4:36 14 18 mph 1009.6mb 48f 40f
4:30 14 20 mph 1009.6mb 48f 40f
4:24 10 16 mph 1009.6mb 48f 40f
4:18 9 15 mph 1009.6mb 48f 40f
4:12 13 17 mph 1009.6mb 48f 40f
4:06 11 18 mph 1009.5mb 48f 41f
4:00 14 20 mph 1009.5mb 48f 41f
3:54 11 20 mph 1009.5mb 48f 41f
3:48 14 20 mph 1009.3mb 48f 41f
3:42 13 17 mph 1009.2mb 48f 41f
3:36 10 16 mph 1009.4mb 48f 41f
3:30 11 17 mph 1009.4mb 48f 41f
3:24 8 17 mph 1009.3mb 48f 41f
3:18 10 17 mph 1009.1mb 48f 41f
3:12 11 18 mph 1009.1mb 48f 42f
3:06 15 21 mph 1009.2mb 48f 42f
3:00 13 17 mph 1009.2mb 48f 42f
2:54 15 22 mph 1009.1mb 48f 42f
2:48 10 21 mph 1009mb 48f 42f
2:42 14 22 mph 1009mb 48f 42f
2:36 13 21 mph 1008.9mb 48f 42f
2:30 13 18 mph 1008.9mb - -
2:24 14 22 mph 1008.9mb 48f 42f
2:18 15 23 mph 1008.8mb 48f 43f
2:12 11 25 mph 1008.8mb 48f 42f
2:06 17 23 mph 1008.5mb 48f 43f
2:00 15 18 mph 1008.8mb 48f 43f
1:54 11 17 mph 1009mb 48f 43f
1:48 15 21 mph 1008.8mb 48f 43f
1:42 10 16 mph 1008.9mb 48f 42f
1:36 13 20 mph 1008.8mb 48f 43f
1:30 13 22 mph 1008.9mb 48f 42f
1:24 14 20 mph 1008.9mb 48f 42f
1:18 10 18 mph 1008.8mb 48f 42f
1:12 10 17 mph 1008.7mb 48f 42f
1:06 13 23 mph 1008.5mb 48f 42f
1:00 13 20 mph 1008.4mb 48f 42f
12:54 15 21 mph 1008.4mb 48f 42f
12:48 15 21 mph 1008.4mb 48f 42f
12:42 15 25 mph 1008.3mb 48f 42f
12:36 11 16 mph 1008.3mb 48f 42f
12:30 17 25 mph 1008.3mb 48f 42f
12:24 17 22 mph 1008.1mb 48f 42f
12:18 18 22 mph 1008.2mb 48f 42f
12:12 16 26 mph 1008.3mb 48f 42f
12:06 18 22 mph 1008.1mb 48f 42f
12:00 18 23 mph 1008.1mb 48f 42f
Sex 12/02 11:54 21 23 mph 1008.2mb 48f 42f
11:48 18 23 mph 1008.3mb 48f 42f
11:42 18 23 mph 1008.3mb 48f 42f
11:36 18 21 mph 1008.4mb 48f 42f
11:30 17 24 mph 1008.5mb 48f 42f
11:24 15 20 mph 1008.5mb 48f 42f
11:18 15 17 mph 1008.6mb 48f 42f
11:12 14 20 mph 1008.6mb 48f 42f
11:06 14 18 mph 1008.6mb 48f 42f
11:00 16 20 mph 1008.6mb 48f 42f
10:54 16 21 mph 1008.7mb 48f 43f
10:48 16 20 mph - - -
10:42 14 20 mph 1008.8mb 47f 43f
10:36 13 15 mph 1008.8mb 47f 43f
10:30 14 16 mph 1008.8mb 47f 43f
10:24 14 15 mph 1008.8mb 47f 43f
10:18 14 16 mph 1008.8mb 47f 43f
10:12 14 17 mph 1008.7mb 47f 43f
10:06 13 16 mph 1008.6mb 47f 43f
10:00 14 16 mph 1008.6mb 47f 44f
9:54 11 16 mph 1008.6mb 47f 44f
9:48 14 16 mph 1008.5mb 47f 44f
9:42 11 15 mph 1008.5mb 47f 44f
9:36 11 15 mph 1008.5mb 47f 44f
9:30 11 14 mph 1008.5mb 47f 44f
9:24 11 14 mph 1008.6mb 47f 44f
9:18 11 15 mph 1008.6mb 47f 44f
9:12 13 15 mph 1008.6mb 48f 45f
9:06 10 15 mph 1008.6mb 48f 45f
9:00 14 17 mph 1008.6mb 48f 45f
8:54 13 14 mph 1008.7mb 48f 45f
8:48 13 15 mph - - -
8:42 10 15 mph 1008.7mb 48f 45f
8:36 11 15 mph 1008.7mb 48f 46f
8:30 10 15 mph 1008.8mb 48f 46f
8:24 10 16 mph 1008.8mb 48f 46f
8:18 11 17 mph - - -
8:12 11 14 mph 1008.7mb 48f 46f
8:06 10 13 mph 1008.8mb 48f 46f
8:00 11 14 mph 1008.7mb 48f 46f
7:54 11 13 mph 1008.8mb 48f 46f
7:48 10 11 mph - - -
7:42 9 10 mph 1008.9mb 48f 47f
7:36 7 10 mph 1008.9mb 48f 47f
7:30 8 10 mph 1009mb 48f 47f
7:24 7 8 mph 1009.1mb 48f 47f
7:18 7
mph
1009.1mb 48f 47f
7:12 6 7 mph 1009.1mb 48f 47f
7:06 6 8 mph 1009.1mb 48f 47f
7:00 6 8 mph 1009mb 48f 47f
6:54 6 7 mph 1009.1mb 48f 47f
6:48 6 8 mph 1009.1mb - -
6:30 7 11 mph 1009.2mb 48f 47f
6:24 7 10 mph 1009.1mb 48f 47f
6:18 8 9 mph 1009.1mb - -
6:12 7 8 mph 1009.1mb 48f 48f
6:06 8 10 mph 1009.1mb 48f 48f
6:00 8 10 mph 1009mb 48f 48f
5:54 8 11 mph 1009mb 48f 48f
5:48 8 10 mph 1009mb 48f 48f
4:54 13 16 mph 1009mb 48f 48f
4:48 14 18 mph 1008.9mb 48f 48f
4:12 9 10 mph 1008.6mb 48f 48f
4:06 10 11 mph 1008.5mb 48f 48f
4:00 9 13 mph 1008.5mb 48f 48f
3:54 7 10 mph 1008.5mb 48f 48f
3:48 9 13 mph 1008.5mb 48f 49f
3:42 8 14 mph 1008.6mb 48f 49f
3:36 9 17 mph 1008.6mb 48f 49f
3:30 11 15 mph 1008.5mb 48f 49f
3:24 8 15 mph 1008.5mb 48f 50f
3:18 10 15 mph 1008.5mb 48f 50f
3:12 8 14 mph 1008.5mb 48f 50f
3:06 9 14 mph 1008.4mb 48f 50f
3:00 10 15 mph 1008.4mb 48f 50f
2:54 8 16 mph 1008.4mb 48f 50f
2:48 8 18 mph 1008.4mb 48f 50f
2:42 7 16 mph 1008.3mb 48f 50f
2:36 10 15 mph 1008.3mb 48f 50f
2:30 10 14 mph 1008.2mb 48f 50f
2:24 11 16 mph 1008.2mb 48f 50f
2:18 13 16 mph 1008.1mb 48f 50f
2:12 11 20 mph 1008.1mb 48f 50f
2:06 17 23 mph 1008mb 48f 50f
2:00 11 18 mph 1007.9mb 48f 50f
1:54 16 21 mph 1007.9mb 48f 50f
1:48 16 23 mph 1007.9mb 48f 50f
1:42 18 28 mph 1007.9mb 48f 49f
1:36 16 23 mph 1008mb 48f 50f
1:30 17 24 mph 1008mb 48f 49f
1:24 14 21 mph 1008.1mb 48f 50f
1:18 13 20 mph 1008.2mb 48f 50f
1:12 14 23 mph 1008.3mb 48f 50f
1:06 11 21 mph 1008.4mb 48f 50f
1:00 15 21 mph 1008.4mb 48f 50f
12:54 17 24 mph 1008.5mb 48f 50f
12:48 16 28 mph 1008.4mb 48f 50f
12:42 18 25 mph 1008.4mb 48f 50f
12:36 14 23 mph 1008.5mb 48f 50f
12:30 15 28 mph 1008.5mb 48f 49f
12:24 14 18 mph 1008.5mb 48f 49f
12:18 10 24 mph 1008.7mb 48f 49f
12:12 15 24 mph 1008.7mb 48f 49f
12:06 16 22 mph 1008.7mb 48f 49f
12:00 14 24 mph 1008.7mb 48f 49f
11:54 17 22 mph 1008.7mb 48f 48f
11:48 15 25 mph 1008.8mb 48f 49f
11:42 18 26 mph 1008.8mb 48f 49f
11:36 11 24 mph 1008.9mb 48f 49f
11:30 17 24 mph 1008.9mb 48f 48f
11:24 14 22 mph 1009.1mb 48f 48f
11:18 20 23 mph 1009.2mb 48f 48f
11:12 20 23 mph 1009.2mb 48f 48f
11:06 16 22 mph 1009.3mb 48f 48f
11:00 13 20 mph 1009.4mb 48f 48f
10:54 11 15 mph 1009.5mb 48f 48f
10:48 13 24 mph 1009.6mb 48f 48f
10:42 13 20 mph 1009.6mb 48f 48f
10:36 11 15 mph 1009.7mb 48f 48f
10:30 11 20 mph 1009.8mb 48f 48f
10:24 14 22 mph 1009.8mb 47f 47f
10:18 14 17 mph 1010mb 47f 47f
10:12 10 16 mph 1010.1mb 47f 46f
10:06 11 15 mph 1010.1mb 47f 46f
10:00 14 17 mph 1010.2mb 47f 45f
9:54 14 16 mph 1010.2mb 47f 45f
9:48 13 17 mph 1010.2mb 47f 44f
9:42 14 16 mph 1010.2mb 47f 44f
9:36 11 17 mph 1010.3mb 47f 44f
9:30 14 18 mph 1010.2mb 47f 44f
9:24 14 17 mph 1010.2mb 47f 44f
9:18 11 16 mph 1010.2mb 47f 43f
9:12 10 15 mph 1010.2mb 47f 43f
9:06 10 14 mph 1010.2mb 47f 43f
9:00 10 16 mph 1010.2mb 47f 43f
8:54 10 14 mph 1010.2mb 47f 43f
8:48 10 15 mph 1010.2mb 47f 43f
8:42 10 13 mph 1010.2mb 47f 42f
8:36 9 14 mph 1010.1mb 47f 42f
8:30 9 11 mph 1010.2mb 47f 42f
8:24 8 11 mph 1010.1mb 47f 42f
8:18 10 11 mph 1010.2mb 47f 42f
8:12 9 11 mph 1010.2mb 47f 41f
8:06 8 10 mph 1010.2mb 47f 41f
8:00 7 8 mph 1010.2mb 47f 41f
7:54 8 10 mph 1010.1mb 47f 41f
7:48 7 10 mph 1010mb 47f 41f
7:42 9 11 mph 1010mb 47f 40f
7:36 9 13 mph 1010mb 47f 40f
7:30 9 13 mph 1009.9mb 47f 41f
7:24 10 14 mph 1009.8mb 47f 41f
7:18 9 13 mph 1009.7mb 47f 41f
7:12 10 13 mph 1009.6mb 47f 41f
7:06 10 11 mph 1009.6mb 47f 41f
7:00 9 13 mph 1009.5mb 47f 41f
6:54 10 14 mph 1009.5mb 48f 41f
6:48 7 11 mph 1009.5mb 48f 41f
6:42 7 11 mph 1009.4mb 48f 40f
6:36 7 13 mph 1009.4mb 48f 41f
6:30 8 15 mph 1009.4mb 48f 41f
6:24 8 14 mph 1009.3mb 48f 41f
6:18 9 14 mph 1009.2mb 48f 41f
6:12 9 14 mph 1009.2mb 48f 41f
6:06 11 16 mph 1009.2mb 48f 41f
6:00 11 16 mph 1009.2mb 48f 41f
5:54 11 16 mph 1009.3mb 48f 41f
5:48 15 18 mph 1009.2mb 48f 41f
5:42 13 18 mph 1009.2mb 48f 41f
5:36 13 16 mph 1009.2mb 48f 41f
5:30 10 20 mph 1009.1mb 48f 41f
5:24 14 20 mph 1009mb 48f 41f
5:18 10 16 mph 1009mb 48f 41f
5:12 13 21 mph 1008.9mb 48f 41f
5:06 14 21 mph 1008.8mb 48f 41f
5:00 18 22 mph 1008.6mb 48f 41f
4:54 15 22 mph 1008.7mb 48f 42f
4:48 16 22 mph 1008.7mb 48f 42f
4:42 16 21 mph 1008.6mb 48f 42f
4:36 18 22 mph 1008.6mb 48f 41f
4:30 17 23 mph 1008.6mb 48f 42f
4:24 16 22 mph 1008.6mb 48f 42f
4:18 16 20 mph 1008.5mb 48f 41f
4:12 17 20 mph 1008.5mb 48f 41f
4:06 17 20 mph 1008.4mb 48f 41f
4:00 17 21 mph 1008.3mb 48f 41f
3:54 17 20 mph 1008.4mb 48f 41f
3:48 15 20 mph 1008.3mb 48f 41f
3:42 14 18 mph 1008.3mb 48f 41f
3:36 16 21 mph 1008.3mb 48f 41f
3:30 17 21 mph 1008.3mb 48f 41f
3:24 16 18 mph 1008.3mb 48f 41f
3:18 17 20 mph 1008.2mb 48f 41f
3:12 17 21 mph 1008.2mb 48f 41f
3:06 17 21 mph 1008.1mb 48f 41f
3:00 17 22 mph 1008.1mb 48f 41f
2:54 18 22 mph 1008.1mb 48f 42f
2:48 20 22 mph 1008.2mb 48f 41f
2:42 18 21 mph 1008.1mb 48f 42f
2:36 15 17 mph 1008.2mb 48f 42f
2:30 14 17 mph 1008.2mb 48f 42f
2:24 15 17 mph 1008.3mb 48f 42f
2:18 16 18 mph 1008.3mb 48f 42f
2:12 16 20 mph 1008.3mb 48f 42f
2:06 15 18 mph 1008.2mb 48f 42f
2:00 16 18 mph 1008.2mb 48f 42f
1:54 15 17 mph 1008.1mb 48f 42f
1:48 16 17 mph 1008mb 48f 42f
1:42 15 16 mph 1008mb 48f 42f
1:36 15 17 mph 1007.9mb 48f 42f
1:30 14 16 mph 1007.7mb 48f 42f
1:24 14 16 mph 1007.6mb 48f 42f
1:18 15 16 mph 1007.6mb 48f 43f
1:12 14 17 mph 1007.7mb 48f 43f
1:06 14 15 mph 1007.7mb 48f 43f
1:00 13 14 mph 1007.6mb 48f 43f
12:54 10 13 mph 1007.6mb 48f 43f
12:48 10 14 mph 1007.6mb 48f 43f
12:42 10 13 mph 1007.5mb 48f 43f
12:36 11 16 mph 1007.4mb 48f 43f
12:30 10 14 mph 1007.2mb 48f 43f
12:24 8 11 mph 1007.3mb 48f 43f
12:18 8 14 mph 1007.3mb 48f 43f
12:12 9 11 mph 1007.3mb 48f 43f
12:06 9 11 mph 1007.2mb 48f 43f
12:00 8 14 mph 1007.2mb 48f 44f
Qui 12/01 11:54 10 14 mph 1007.1mb 48f 44f
11:48 13 15 mph 1007mb 48f 44f
11:42 13 15 mph 1007mb 48f 44f
11:36 13 14 mph 1007mb 48f 44f
11:30 13 16 mph 1007mb 48f 44f
11:24 10 13 mph 1007mb 48f 44f
11:18 10 14 mph 1007.1mb 48f 44f
11:12 14 16 mph 1007mb 48f 45f
11:06 11 14 mph 1007mb 48f 45f
11:00 9 11 mph 1007mb 48f 45f
10:54 9 10 mph 1007mb 48f 45f
10:48 9 10 mph 1006.9mb 48f 45f
10:42 8 10 mph 1006.8mb 48f 45f
10:36 8 10 mph 1006.8mb 48f 45f
10:30 7 10 mph 1006.7mb 48f 45f
10:24 7 14 mph 1006.7mb 48f 45f
10:18 9 14 mph 1006.5mb 48f 45f
10:12 10 18 mph 1006.5mb 48f 46f
10:06 14 17 mph 1006.3mb 48f 46f
10:00 10 15 mph 1006.3mb 48f 46f
9:54 13 20 mph 1006.4mb 48f 46f
9:48 10 18 mph 1006.4mb 48f 46f
9:30 13 18 mph 1006.2mb 48f 47f
9:24 14 21 mph 1006.1mb 48f 47f
9:18 11 16 mph 1006.1mb 48f 47f
9:12 11 18 mph 1006mb 48f 47f
9:06 9 18 mph 1005.9mb 48f 47f
9:00 11 22 mph 1005.8mb 48f 47f
8:54 15 26 mph 1005.7mb 48f 48f
8:48 17 22 mph - - -
8:30 14 20 mph 1005.3mb 48f 49f
8:24 10 15 mph 1005.2mb 48f 49f
8:18 10 17 mph - - -
8:12 10 21 mph 1005.1mb 48f 49f
8:06 13 17 mph 1005mb 48f 49f
8:00 10 16 mph 1005mb 48f 49f
7:54 14 22 mph 1004.9mb 48f 49f
7:48 10 17 mph - - -
7:42 9 21 mph 1004.7mb 48f 49f
7:36 11 17 mph 1004.6mb 48f 49f
7:30 13 16 mph 1004.6mb 48f 49f
7:24 10 14 mph 1004.5mb 48f 49f
7:18 9 11 mph - - -
7:12 7 11 mph 1004.4mb 48f 50f
7:06 8 14 mph 1004.3mb 48f 50f
7:00 10 16 mph 1004.2mb 48f 50f
6:54 10 16 mph 1004.1mb 48f 50f
6:48 8 14 mph 1004mb - -
6:42 7 11 mph 1004mb 48f 50f
6:36 10 14 mph 1004mb 48f 50f
6:30 7 14 mph 1003.9mb 48f 50f
6:24 8 14 mph 1003.8mb 48f 50f
6:18 11 15 mph - - -
6:12 6 10 mph 1003.7mb 48f 50f
6:06 6 10 mph 1003.6mb 48f 51f
6:00 9 13 mph 1003.5mb 48f 51f
5:54 7 11 mph 1003.5mb 48f 51f
5:48 11 14 mph 1003.5mb - -
5:42 8 13 mph 1003.4mb 48f 51f
5:36 8 14 mph 1003.4mb 48f 51f
5:30 9 16 mph 1003.4mb 48f 51f
5:24 11 15 mph 1003.3mb 48f 51f
5:18 10 15 mph - - -
5:12 10 14 mph 1003.2mb 48f 52f
5:06 13 16 mph 1003.1mb 48f 52f
5:00 14 18 mph 1003mb 48f 52f
4:54 15 20 mph 1002.8mb 48f 52f
4:48 14 22 mph - - -
4:42 11 17 mph 1002.6mb 48f 53f
4:36 14 17 mph 1002.4mb 48f 53f
4:30 11 16 mph 1002.3mb 48f 53f
4:24 9 14 mph 1002.1mb 48f 53f
4:18 13 17 mph 1002.1mb 48f 53f
4:12 10 17 mph 1002mb 48f 54f
4:06 7 9 mph 1002mb 48f 54f
4:00 7 10 mph 1001.9mb 48f 54f
3:54 8 13 mph 1001.8mb 48f 54f
3:48 9 14 mph 1001.6mb 48f 54f
3:42 9 18 mph 1001.5mb 48f 54f
3:36 10 14 mph 1001.4mb 48f 55f
3:30 13 16 mph 1001.2mb 48f 55f
3:24 9 18 mph 1001.1mb 48f 55f
3:18 14 18 mph 1001mb 48f 55f
3:12 10 18 mph 1000.9mb 48f 55f
3:06 10 18 mph 1000.8mb 48f 55f
3:00 14 20 mph 1000.7mb 48f 56f
2:54 8 16 mph 1000.7mb 48f 56f
2:48 9 20 mph 1000.7mb 48f 56f
2:42 14 18 mph 1000.7mb 48f 56f
2:36 11 16 mph 1000.6mb 48f 56f
2:30 16 21 mph 1000.5mb 48f 56f
2:24 13 22 mph 1000.4mb 48f 56f
2:18 15 20 mph 1000.3mb 48f 56f
2:12 11 17 mph 1000.3mb 48f 56f
2:06 15 21 mph 1000.2mb 48f 57f
2:00 14 18 mph 1000.1mb 48f 57f
1:54 9 18 mph 1000.1mb 48f 57f
1:48 13 17 mph 1000.1mb 48f 57f
12:54 14 22 mph 999.7mb 48f 56f
12:48 14 21 mph 999.7mb 48f 57f
12:30 13 18 mph 999.8mb 48f -
12:24 16 23 mph 999.9mb 48f 56f
12:18 8 16 mph 999.9mb 48f 57f
12:12 11 16 mph 1000mb 48f 56f
12:06 10 20 mph 1000.1mb 48f 57f
12:00 10 16 mph 1000.1mb 48f 57f
11:54 13 17 mph 1000.1mb 48f 57f
11:48 14 17 mph 1000.1mb 48f 56f
11:42 11 16 mph 1000.2mb 48f 55f
11:36 13 20 mph 1000.3mb 48f 56f
11:30 13 20 mph 1000.3mb 48f 56f
11:24 9 15 mph 1000.2mb 48f 56f
11:18 13 17 mph 1000.2mb 48f 56f
11:12 14 17 mph 1000.3mb 48f 56f
11:06 11 18 mph 1000.3mb 48f 56f
11:00 13 23 mph 1000.3mb 48f 56f
10:54 15 23 mph 1000.4mb 48f 56f
10:48 11 22 mph 1000.4mb 48f 56f
10:42 10 18 mph 1000.5mb 48f 56f
10:36 10 17 mph 1000.5mb 48f 55f
10:30 8 14 mph 1000.6mb 48f 56f
10:24 13 20 mph 1000.7mb 48f 56f
10:18 14 22 mph 1000.6mb 48f 55f
10:12 11 21 mph 1000.7mb 48f 55f
10:06 10 16 mph 1000.7mb 48f 56f
10:00 8 17 mph 1000.5mb 48f 56f
9:54 9 17 mph 1000.4mb 48f 56f
9:48 10 15 mph 1000.3mb 48f 55f
9:42 10 18 mph 1000.2mb 48f 55f
9:36 11 17 mph 1000.1mb 48f 55f
9:30 11 17 mph 1000mb 48f 55f
9:24 13 23 mph 999.9mb 48f 55f
9:18 13 21 mph 999.7mb 48f 55f
9:12 14 16 mph 999.6mb 48f 55f
9:06 11 16 mph 999.6mb 48f 54f
9:00 13 17 mph 999.5mb 48f 54f
8:54 10 15 mph 999.4mb 48f 54f
8:48 10 14 mph 999.2mb 48f 53f
8:42 9 15 mph 999.1mb 48f 53f
8:36 9 14 mph 998.9mb 48f 54f
8:30 9 13 mph 998.8mb 48f 54f
8:24 8 13 mph 998.7mb 48f 53f
8:18 8 11 mph 998.5mb 48f 53f
8:12 9 11 mph 998.2mb 48f 53f
8:06 8 9 mph 997.9mb 48f 53f
8:00 8 11 mph 997.9mb 48f 53f
7:54 7 10 mph 998.1mb 48f 53f
7:48 5 9 mph 998.1mb 48f 53f
7:42 5 9 mph 997.8mb 48f 53f
7:36 7 11 mph 997.7mb 48f 53f
7:30 9 16 mph 997.6mb 48f 53f
7:24 11 14 mph 997.6mb 48f 53f
7:18 8 14 mph 997.9mb 48f 54f
7:12 10 15 mph 997.8mb 48f 54f
7:06 15 20 mph 997.6mb 48f 55f
7:00 15 20 mph 997.7mb 48f 55f
6:54 11 16 mph 997.7mb 48f 56f
6:48 14 20 mph 997.9mb 48f 57f
6:42 10 16 mph 997.8mb 48f 57f
6:36 14 29 mph 997.4mb 48f 58f
6:30 15 26 mph 997.6mb 48f 58f
6:24 20 30 mph 997.6mb 48f 59f
6:18 16 22 mph 997.2mb 48f 58f
6:12 17 23 mph 996.8mb 48f 58f
6:06 18 22 mph 996.7mb 48f 59f
6:00 20 24 mph 996.6mb 48f 59f
5:54 21 28 mph 996.6mb 48f 58f
5:48 21 23 mph 996.7mb 48f 59f
5:42 17 21 mph 996.6mb 47f 58f
5:36 21 28 mph 996.4mb 47f 58f
5:30 17 23 mph 996.3mb 47f 58f
5:24 21 24 mph 996.4mb 47f 59f
5:18 18 24 mph 996.4mb 47f 58f
5:12 20 24 mph 996.4mb 47f 58f
5:06 18 24 mph 996.4mb 47f 58f
5:00 22 28 mph 996.3mb 47f 59f
4:54 22 30 mph 996.4mb 48f 58f
4:48 25 33 mph 996.3mb 48f 59f
4:42 23 32 mph 996.4mb 48f 58f
4:36 25 31 mph 996.5mb 48f 59f
4:30 29 37 mph 996.3mb 48f 59f
4:24 24 39 mph 996.6mb 48f 59f
4:18 25 29 mph 996.4mb 48f 59f
4:12 23 29 mph 996.3mb 48f 58f
4:06 20 22 mph 996.7mb 48f 58f
4:00 3 6 mph 996.9mb 48f 52f
3:54 2 5 mph 997.3mb 48f 50f
3:48 2 3 mph 997.5mb 48f 50f
3:42 2
mph
997.8mb 48f 50f
3:36 2 5 mph 997.8mb 47f 51f
3:30 2 3 mph 997.8mb 47f 50f
3:24 1 3 mph 997.8mb 47f 51f
3:18 2 7 mph 998mb 47f 50f
3:12 5 6 mph 998.1mb 47f 50f
3:06 3 6 mph 998.3mb 47f 50f
3:00 5 6 mph 998.3mb 47f 50f
2:54 3 5 mph 998.3mb 47f 49f
2:48 3 5 mph 998.6mb 47f 49f
2:42 3 6 mph 998.9mb 47f 49f
2:36 6 7 mph 999.1mb 47f 49f
2:30 6
mph
999.4mb 47f 49f
2:24 3 7 mph 999.8mb 47f 49f
2:18 7 8 mph 1000mb 47f 49f
2:12 7 8 mph 1000.4mb 47f 49f
2:06 7 8 mph 1000.8mb 47f 49f
2:00 6 7 mph 1001mb 47f 49f
1:54 7 9 mph 1001.3mb 47f 49f
1:48 7 9 mph 1001.4mb 47f 49f
1:42 6
mph
1001.7mb 47f 49f
1:36 3 6 mph 1002.1mb 47f 49f
1:30 5 11 mph 1002.1mb 47f 49f
1:24 8 11 mph 1002.3mb 47f 49f
1:18 8 10 mph 1001.9mb 47f 49f
1:12 3 10 mph 1002.5mb 47f 49f
1:06 9
mph
1002.5mb 47f 49f
1:00 6 9 mph 1002.9mb 47f 49f
12:54 7 9 mph 1003.1mb 47f 49f
12:48 9 11 mph 1003.2mb 47f 49f
12:42 9 10 mph 1003.3mb 47f -
12:36 8 9 mph 1003.7mb 47f -
12:30 8 9 mph 1003.9mb 47f 49f
12:24 8 9 mph 1004.1mb 47f 49f
12:18 9 11 mph 1004.3mb 47f 49f
12:12 7 10 mph 1004.6mb 47f 49f
12:06 11 13 mph 1004.6mb 47f 49f
12:00 10 11 mph 1004.6mb 47f 49f
Qua 11/30 11:54 10 11 mph 1004.9mb 47f 49f
11:48 10 11 mph 1005.2mb 47f 49f
11:42 9 11 mph 1005.7mb 47f 49f
11:36 10 15 mph 1006.1mb 47f 49f
11:30 13 14 mph 1005.8mb 47f 49f
11:24 11 14 mph 1006.2mb 47f 49f
11:18 10 14 mph 1006.5mb 47f 49f
11:12 13 15 mph 1006.6mb 47f 49f
11:06 13 16 mph 1006.9mb 47f 49f
11:00 14 16 mph 1007.2mb 47f 49f
10:54 13 16 mph 1007.3mb 47f 49f
10:48 10 16 mph 1007.6mb 47f 49f
10:42 14 17 mph 1007.4mb 47f 49f
10:36 14 16 mph 1007.6mb 47f 49f
10:30 14 17 mph 1008.1mb 47f 49f
10:24 14 17 mph 1008.1mb 47f 49f
10:18 14 17 mph 1008.4mb 47f 49f
10:12 14 15 mph 1008.5mb 47f 49f
10:06 11 14 mph 1008.9mb 47f 49f
10:00 13 15 mph 1009.1mb 47f 49f
9:54 11 14 mph 1009.3mb 47f 49f
9:48 11 14 mph 1009.5mb 47f 49f
9:42 13 14 mph 1009.6mb 47f 49f
9:36 13 15 mph 1009.6mb 47f 49f
9:30 13 14 mph 1009.9mb 47f 49f
9:24 11 13 mph 1010.3mb 47f 49f
9:18 13 16 mph 1010.5mb 47f 49f
9:12 13 15 mph 1010.5mb 47f 49f
9:06 13 16 mph 1010.6mb 47f 49f
9:00 13 16 mph 1010.5mb 47f 49f
8:54 15 18 mph 1010.6mb 47f 49f
8:48 16 18 mph 1010.9mb - -
8:42 13 17 mph 1011.1mb 47f 49f
8:36 11 14 mph 1011.4mb 47f 49f
8:30 11 15 mph 1011.5mb 47f 49f
8:24 14 17 mph 1011mb 47f 49f
8:18 11 16 mph - - -
8:12 11 14 mph 1011.4mb 47f 49f
8:06 11 14 mph 1011.6mb 47f 49f
8:00 13 15 mph 1011.7mb 47f 49f
7:54 14 17 mph 1011.5mb 47f 49f
7:48 14 15 mph - - -
7:42 13 15 mph 1012mb 47f 49f
7:36 14 16 mph 1011.8mb 47f 49f
7:30 14 18 mph 1011.8mb 47f -
7:24 14 20 mph 1011.8mb 47f 49f
7:18 15 20 mph - - -
7:12 13 16 mph 1012.2mb 47f 48f
7:06 15 17 mph 1012.2mb 47f 48f
7:00 14 20 mph 1012.1mb 47f 48f
6:54 17 18 mph 1011.9mb 47f 48f
6:48 14 17 mph - - -
6:42 16 21 mph 1012.1mb 47f 48f
6:36 14 16 mph 1012.2mb 47f 48f
6:00 13 15 mph 1012.7mb 47f 48f
5:54 14 16 mph 1012.9mb 47f 49f
5:48 13 14 mph 1012.8mb - -
5:42 11 13 mph 1012.9mb 47f 49f
5:36 9 13 mph 1013.1mb 47f 49f
5:30 11 13 mph 1013.1mb - -
5:24 11 13 mph 1013.1mb 47f 49f
5:18 10 14 mph - - -
5:12 13 15 mph 1013.3mb 47f 49f
5:06 10 11 mph 1013.6mb 47f 49f
5:00 11 13 mph 1013.5mb 47f 49f
4:54 11 13 mph 1013.6mb 47f 49f
4:48 11 13 mph - - -
4:42 11 13 mph 1013.7mb 47f 49f
4:36 8 9 mph 1014.2mb 47f 49f
4:30 7 10 mph 1014.6mb 47f 49f
4:24 9 13 mph 1014.2mb 47f 49f
4:18 10 11 mph 1014mb 47f 49f
4:12 10 13 mph 1014mb 47f 49f
4:06 11 13 mph 1013.8mb 47f 49f
4:00 8 10 mph 1013.9mb 47f -
3:54 7 8 mph 1014.2mb 47f 49f
3:48 8 9 mph 1014.1mb 47f 49f
3:42 7 9 mph 1013.9mb 47f 49f
3:36 9 10 mph 1013.8mb 47f 49f
3:30 9 11 mph 1013.9mb 47f 49f
3:24 10 14 mph 1013.8mb 47f 49f
3:18 14 16 mph 1013.5mb 47f 49f
3:12 14 17 mph 1013.3mb 47f 49f
3:06 14 17 mph 1013.4mb 47f 49f
3:00 15 18 mph 1013.2mb 47f 50f
2:54 14 17 mph 1013.3mb 47f 50f
2:48 17 20 mph 1012.9mb 47f 50f
2:42 18 20 mph 1012.8mb 48f 51f
2:36 15 18 mph 1013.1mb 48f 51f
2:30 16 17 mph 1013.2mb 48f 51f
2:24 17 18 mph 1013.3mb 48f 52f
2:18 14 15 mph 1013.5mb 48f 52f